Time;durP1;ratioP1;P1;durP2;ratioP2;P2;SDS_P1;SDS_P2;PMS_P1;PMS_P2;Temp;Humidity;BMP_temperature;BMP_pressure;BME280_temperature;BME280_humidity;BME280_pressure;Samples;Min_cycle;Max_cycle;Signal;HPM_P1;HPM_P2
2020/12/10 00:00:54;;;;;;;28.63;13.15;;;4.60;99.90;;;;;;4990623;28;20117;-75
2020/12/10 00:03:20;;;;;;;26.17;12.32;;;4.70;99.90;;;;;;4993076;28;20081;-75
2020/12/10 00:05:46;;;;;;;30.23;12.30;;;4.70;99.90;;;;;;4997157;28;20034;-74
2020/12/10 00:08:11;;;;;;;28.63;12.55;;;4.70;99.90;;;;;;4996862;28;20046;-75
2020/12/10 00:10:37;;;;;;;26.55;12.00;;;4.70;99.90;;;;;;4996179;28;20045;-75
2020/12/10 00:13:02;;;;;;;24.90;12.68;;;4.70;99.90;;;;;;4998349;28;20030;-75
2020/12/10 00:15:28;;;;;;;27.27;12.90;;;4.80;99.90;;;;;;4995583;28;20053;-75
2020/12/10 00:17:54;;;;;;;25.63;11.48;;;4.80;99.90;;;;;;4992586;28;20386;-77
2020/12/10 00:20:19;;;;;;;30.80;12.77;;;4.70;99.90;;;;;;4989951;28;20407;-75
2020/12/10 00:22:45;;;;;;;26.25;12.27;;;4.70;99.90;;;;;;4992303;28;20439;-76
2020/12/10 00:25:10;;;;;;;26.98;12.27;;;4.70;99.90;;;;;;4991543;28;20027;-77
2020/12/10 00:27:36;;;;;;;22.67;12.05;;;4.70;99.90;;;;;;4992139;28;20073;-75
2020/12/10 00:30:06;;;;;;;24.42;11.10;;;4.70;99.90;;;;;;4992807;28;20030;-76
2020/12/10 00:32:32;;;;;;;24.48;11.23;;;4.70;99.90;;;;;;4991294;28;20030;-75
2020/12/10 00:34:58;;;;;;;27.50;12.43;;;4.60;99.90;;;;;;4991180;28;20089;-76
2020/12/10 00:37:25;;;;;;;25.48;11.07;;;4.50;99.90;;;;;;4992254;28;20045;-75
2020/12/10 00:39:50;;;;;;;23.33;11.55;;;4.50;99.90;;;;;;4994338;28;20033;-77
2020/12/10 00:42:16;;;;;;;27.15;11.57;;;4.50;99.90;;;;;;4998635;28;20026;-78
2020/12/10 00:44:42;;;;;;;33.22;12.73;;;4.50;99.90;;;;;;5006430;28;20057;-76
2020/12/10 00:47:07;;;;;;;24.63;11.60;;;4.60;99.90;;;;;;5007970;28;20029;-77
2020/12/10 00:49:33;;;;;;;26.85;11.52;;;4.50;99.90;;;;;;5011237;28;20014;-76
2020/12/10 00:51:58;;;;;;;23.50;10.43;;;4.50;99.90;;;;;;5001299;28;20030;-76
2020/12/10 00:54:24;;;;;;;26.17;10.30;;;4.50;99.90;;;;;;5001066;28;20030;-76
2020/12/10 00:56:50;;;;;;;23.70;11.32;;;4.50;99.90;;;;;;4999587;28;20038;-76
2020/12/10 00:59:16;;;;;;;25.80;11.43;;;4.60;99.90;;;;;;4997368;28;20510;-76
2020/12/10 01:01:43;;;;;;;22.58;10.80;;;4.60;99.90;;;;;;4996101;28;20494;-77
2020/12/10 01:04:10;;;;;;;30.63;12.25;;;4.50;99.90;;;;;;4996283;28;20026;-76
2020/12/10 01:06:35;;;;;;;23.98;10.88;;;4.50;99.90;;;;;;4995153;28;20069;-77
2020/12/10 01:09:02;;;;;;;21.38;10.48;;;4.50;99.90;;;;;;4993125;28;20022;-76
2020/12/10 01:11:27;;;;;;;23.05;10.32;;;4.50;99.90;;;;;;4996078;28;20031;-76
2020/12/10 01:13:55;;;;;;;26.17;10.93;;;4.50;99.90;;;;;;4995553;28;20101;-76
2020/12/10 01:16:21;;;;;;;20.63;10.30;;;4.60;99.90;;;;;;4993946;28;20482;-76
2020/12/10 01:18:47;;;;;;;26.42;11.10;;;4.60;99.90;;;;;;4993199;28;20026;-75
2020/12/10 01:21:13;;;;;;;25.25;10.52;;;4.60;99.90;;;;;;4994214;28;20034;-76
2020/12/10 01:23:38;;;;;;;23.38;10.73;;;4.50;99.90;;;;;;4993924;28;20027;-76
2020/12/10 01:26:04;;;;;;;20.20;10.02;;;4.60;99.90;;;;;;4994743;28;20019;-76
2020/12/10 01:28:29;;;;;;;22.77;11.55;;;4.50;99.90;;;;;;4995457;28;20058;-76
2020/12/10 01:30:55;;;;;;;25.40;10.68;;;4.50;99.90;;;;;;4993851;28;20057;-76
2020/12/10 01:33:20;;;;;;;19.75;10.23;;;4.50;99.90;;;;;;4993852;28;20042;-75
2020/12/10 01:35:46;;;;;;;21.25;9.63;;;4.50;99.90;;;;;;4994033;28;20513;-76
2020/12/10 01:38:12;;;;;;;24.85;11.27;;;4.60;99.90;;;;;;4994152;28;20026;-78
2020/12/10 01:40:37;;;;;;;18.60;9.32;;;4.60;99.90;;;;;;4993129;28;20026;-76
2020/12/10 01:43:03;;;;;;;17.25;9.25;;;4.60;99.90;;;;;;4993896;28;20026;-75
2020/12/10 01:45:28;;;;;;;22.58;10.20;;;4.60;99.90;;;;;;4993683;28;20027;-77
2020/12/10 01:47:54;;;;;;;23.50;10.23;;;4.50;99.90;;;;;;4994771;28;20498;-76
2020/12/10 01:50:20;;;;;;;19.92;9.32;;;4.40;99.90;;;;;;4994832;28;20030;-76
2020/12/10 01:52:48;;;;;;;22.30;10.27;;;4.40;99.90;;;;;;4995415;28;20399;-76
2020/12/10 01:55:14;;;;;;;29.38;10.23;;;4.40;99.90;;;;;;4993089;28;20043;-76
2020/12/10 01:57:39;;;;;;;20.00;9.20;;;4.40;99.90;;;;;;4994185;28;20113;-77
2020/12/10 02:00:05;;;;;;;21.05;9.32;;;4.40;99.90;;;;;;4993115;28;20022;-76
2020/12/10 02:02:30;;;;;;;16.13;8.82;;;4.40;99.90;;;;;;4993142;28;20116;-76
2020/12/10 02:04:56;;;;;;;21.50;10.20;;;4.40;99.90;;;;;;4994147;28;20026;-76
2020/12/10 02:07:22;;;;;;;17.88;9.52;;;4.30;99.90;;;;;;4994278;28;20053;-76
2020/12/10 02:09:48;;;;;;;19.35;9.63;;;4.30;99.90;;;;;;4995026;28;20026;-75
2020/12/10 02:12:14;;;;;;;18.23;9.60;;;4.40;99.90;;;;;;4994878;28;20081;-77
2020/12/10 02:14:39;;;;;;;21.42;10.13;;;4.30;99.90;;;;;;4995866;28;20026;-76
2020/12/10 02:17:06;;;;;;;18.38;9.07;;;4.30;99.90;;;;;;4995768;28;20080;-76
2020/12/10 02:19:32;;;;;;;24.10;10.23;;;4.20;99.90;;;;;;4997435;28;20034;-76
2020/12/10 02:21:58;;;;;;;18.85;9.70;;;4.20;99.90;;;;;;5005928;28;20037;-76
2020/12/10 02:24:24;;;;;;;20.75;9.48;;;4.10;99.90;;;;;;5011241;28;20023;-76
2020/12/10 02:26:49;;;;;;;19.83;9.70;;;4.00;99.90;;;;;;5013635;28;20025;-76
2020/12/10 02:29:19;;;;;;;18.17;8.77;;;4.00;99.90;;;;;;5013170;28;20050;-76
2020/12/10 02:31:46;;;;;;;23.63;8.90;;;3.90;99.90;;;;;;5013315;28;20033;-77
2020/12/10 02:34:13;;;;;;;16.85;8.15;;;3.80;99.90;;;;;;5015357;28;20069;-77
2020/12/10 02:36:39;;;;;;;20.48;9.15;;;3.80;99.90;;;;;;5004169;28;20035;-76
2020/12/10 02:39:06;;;;;;;25.90;10.10;;;3.70;99.90;;;;;;5001513;28;20030;-76
2020/12/10 02:41:33;;;;;;;17.98;9.52;;;3.60;99.90;;;;;;4996252;28;20046;-76
2020/12/10 02:43:58;;;;;;;18.45;9.82;;;3.50;99.90;;;;;;4995051;28;20029;-76
2020/12/10 02:46:24;;;;;;;19.08;9.90;;;3.50;99.90;;;;;;4994918;28;20018;-76
2020/12/10 02:48:50;;;;;;;24.40;10.40;;;3.40;99.90;;;;;;4992549;28;20038;-76
2020/12/10 02:51:15;;;;;;;17.88;9.30;;;3.40;99.90;;;;;;4992560;28;20068;-76
2020/12/10 02:53:41;;;;;;;22.60;9.82;;;3.50;99.90;;;;;;4992700;28;20030;-76
2020/12/10 02:56:08;;;;;;;19.88;9.10;;;3.50;99.90;;;;;;4993362;28;20113;-76
2020/12/10 02:58:35;;;;;;;21.55;9.30;;;3.40;99.90;;;;;;4992996;28;20030;-76
2020/12/10 03:01:00;;;;;;;21.58;9.43;;;3.50;99.90;;;;;;4994459;28;20085;-76
2020/12/10 03:03:26;;;;;;;20.00;10.05;;;3.40;99.90;;;;;;4993910;28;20026;-76
2020/12/10 03:05:51;;;;;;;21.83;8.82;;;3.50;99.90;;;;;;4989003;28;20026;-76
2020/12/10 03:08:17;;;;;;;20.27;9.90;;;3.40;99.90;;;;;;4989606;28;20030;-76
2020/12/10 03:10:43;;;;;;;26.65;11.13;;;3.50;99.90;;;;;;4991841;28;20022;-76
2020/12/10 03:13:08;;;;;;;22.50;10.35;;;3.40;99.90;;;;;;4991987;28;20026;-76
2020/12/10 03:15:34;;;;;;;22.98;10.23;;;3.40;99.90;;;;;;4992261;28;20073;-76
2020/12/10 03:17:59;;;;;;;26.55;10.52;;;3.30;99.90;;;;;;4993688;28;20105;-77
2020/12/10 03:20:25;;;;;;;22.25;9.98;;;3.30;99.90;;;;;;4993313;28;20057;-75
2020/12/10 03:22:51;;;;;;;23.95;12.00;;;3.30;99.90;;;;;;4993301;28;20434;-76
2020/12/10 03:25:16;;;;;;;25.70;11.60;;;3.20;99.90;;;;;;4993043;28;20030;-75
2020/12/10 03:27:43;;;;;;;25.10;11.02;;;3.10;99.90;;;;;;4992802;28;20454;-75
2020/12/10 03:30:09;;;;;;;21.60;9.77;;;3.00;99.90;;;;;;4992545;28;20385;-75
2020/12/10 03:32:35;;;;;;;23.20;10.93;;;2.90;99.90;;;;;;4993095;28;20026;-75
2020/12/10 03:35:03;;;;;;;23.48;9.98;;;2.80;99.90;;;;;;4992322;28;20397;-76
2020/12/10 03:37:29;;;;;;;23.30;11.93;;;2.80;99.90;;;;;;4990030;28;20479;-75
2020/12/10 03:39:54;;;;;;;29.48;12.40;;;2.70;99.90;;;;;;4991978;28;20022;-75
2020/12/10 03:42:20;;;;;;;23.13;11.10;;;2.60;99.90;;;;;;4993808;28;20524;-76
2020/12/10 03:44:46;;;;;;;26.38;12.27;;;2.50;99.90;;;;;;4993254;28;20014;-76
2020/12/10 03:47:12;;;;;;;25.25;11.07;;;2.50;99.90;;;;;;4996661;28;20054;-76
2020/12/10 03:49:37;;;;;;;27.15;11.07;;;2.40;99.90;;;;;;5007554;28;20026;-76
2020/12/10 03:52:03;;;;;;;30.00;11.20;;;2.30;99.90;;;;;;5011523;28;20010;-76
2020/12/10 03:54:29;;;;;;;24.25;10.90;;;2.30;99.90;;;;;;5013720;28;20078;-76
2020/12/10 03:56:55;;;;;;;22.13;11.02;;;2.20;99.90;;;;;;5014758;28;20097;-76
2020/12/10 03:59:21;;;;;;;26.75;10.82;;;2.20;99.90;;;;;;5015299;28;20031;-77
2020/12/10 04:01:46;;;;;;;25.40;11.25;;;2.20;99.90;;;;;;5003743;28;20035;-76
2020/12/10 04:04:12;;;;;;;22.50;10.90;;;2.20;99.90;;;;;;4997633;28;20018;-76
2020/12/10 04:06:42;;;;;;;24.63;10.93;;;2.10;99.90;;;;;;4994708;28;20122;-75
2020/12/10 04:09:11;;;;;;;24.77;10.48;;;2.10;99.90;;;;;;4993886;28;20370;-77
2020/12/10 04:11:38;;;;;;;19.77;10.07;;;2.10;99.90;;;;;;4991565;28;20125;-76
2020/12/10 04:14:05;;;;;;;28.95;11.32;;;2.20;99.90;;;;;;4991514;28;20026;-75
2020/12/10 04:16:30;;;;;;;23.50;11.23;;;2.20;99.90;;;;;;4993030;28;20045;-76
2020/12/10 04:18:56;;;;;;;32.40;11.75;;;2.20;99.90;;;;;;4991842;28;20042;-76
2020/12/10 04:21:21;;;;;;;26.20;11.82;;;2.20;99.90;;;;;;4991204;28;20053;-77
2020/12/10 04:23:48;;;;;;;26.17;11.45;;;2.10;99.90;;;;;;4990854;28;20360;-77
2020/12/10 04:26:18;;;;;;;24.70;11.43;;;2.20;99.90;;;;;;4991709;28;20026;-77
2020/12/10 04:28:45;;;;;;;24.20;11.48;;;2.10;99.90;;;;;;4994441;28;20027;-76
2020/12/10 04:31:11;;;;;;;24.50;10.65;;;2.10;99.90;;;;;;4995557;28;20104;-76
2020/12/10 04:33:37;;;;;;;23.35;10.10;;;2.10;99.90;;;;;;4994787;28;20605;-76
2020/12/10 04:36:03;;;;;;;21.42;10.82;;;2.00;99.90;;;;;;4996126;28;20390;-76
2020/12/10 04:38:30;;;;;;;24.70;12.15;;;1.90;99.90;;;;;;4996399;28;20034;-76
2020/12/10 04:40:56;;;;;;;27.40;11.30;;;1.90;99.90;;;;;;4995827;28;20045;-77
2020/12/10 04:43:27;;;;;;;25.83;11.55;;;1.80;99.90;;;;;;4994873;28;20515;-77
2020/12/10 04:46:02;;;;;;;29.35;11.45;;;1.80;99.90;;;;;;4988214;28;20030;-76
2020/12/10 04:48:30;;;;;;;22.17;10.98;;;1.80;99.90;;;;;;4988619;28;20528;-77
2020/12/10 04:50:57;;;;;;;29.20;12.13;;;1.70;99.90;;;;;;4995878;28;20133;-76
2020/12/10 04:53:25;;;;;;;24.05;10.65;;;1.70;99.90;;;;;;4991104;28;20030;-77
2020/12/10 04:55:55;;;;;;;23.67;10.45;;;1.70;99.90;;;;;;4980118;28;20027;-76
2020/12/10 04:58:21;;;;;;;23.38;12.02;;;1.70;99.90;;;;;;4996347;28;20058;-76
2020/12/10 05:00:56;;;;;;;28.27;11.38;;;1.70;99.90;;;;;;4993627;28;20073;-77
2020/12/10 05:03:23;;;;;;;23.75;10.88;;;1.70;99.90;;;;;;4994741;28;20326;-79
2020/12/10 05:05:49;;;;;;;21.73;10.48;;;1.70;99.90;;;;;;5006984;28;20018;-78
2020/12/10 05:08:27;;;;;;;34.95;11.65;;;1.70;99.90;;;;;;5012598;28;20069;-77
2020/12/10 05:10:53;;;;;;;27.10;11.15;;;1.70;99.90;;;;;;5016032;28;20018;-76
2020/12/10 05:13:18;;;;;;;22.25;11.38;;;1.60;99.90;;;;;;5016360;28;20014;-78
2020/12/10 05:15:44;;;;;;;27.30;11.50;;;1.60;99.90;;;;;;5014237;28;20042;-76
2020/12/10 05:18:12;;;;;;;25.92;11.27;;;1.70;99.90;;;;;;5002394;28;20038;-77
2020/12/10 05:20:48;;;;;;;25.23;11.30;;;1.70;99.90;;;;;;5001544;28;20130;-77
2020/12/10 05:23:16;;;;;;;26.05;11.13;;;1.70;99.90;;;;;;4993480;28;20121;-77
2020/12/10 05:25:52;;;;;;;21.85;10.60;;;1.70;99.90;;;;;;4995636;28;20382;-77
2020/12/10 05:28:22;;;;;;;20.40;10.70;;;1.60;99.90;;;;;;4991210;28;20026;-76
2020/12/10 05:31:05;;;;;;;25.90;10.52;;;1.70;99.90;;;;;;4995775;28;20031;-77
2020/12/10 05:33:32;;;;;;;23.13;9.93;;;1.70;99.90;;;;;;4992517;28;20049;-77
2020/12/10 05:36:12;;;;;;;23.50;11.18;;;1.70;99.90;;;;;;4995445;28;20022;-76
2020/12/10 05:39:04;;;;;;;27.17;11.05;;;1.60;99.90;;;;;;4986904;28;20037;-76
2020/12/10 05:41:34;;;;;;;27.10;11.18;;;1.60;99.90;;;;;;4984004;28;20029;-77
2020/12/10 05:44:20;;;;;;;21.02;10.63;;;1.60;99.90;;;;;;4986421;28;20390;-77
2020/12/10 05:46:49;;;;;;;25.40;11.05;;;1.60;99.90;;;;;;4994989;28;20025;-77
2020/12/10 05:49:15;;;;;;;22.65;10.65;;;1.60;99.90;;;;;;4994720;28;20390;-77
2020/12/10 05:51:45;;;;;;;29.63;11.00;;;1.60;99.90;;;;;;4991844;28;20049;-77
2020/12/10 05:54:14;;;;;;;25.08;10.75;;;1.70;99.90;;;;;;4993747;28;20023;-77
2020/12/10 05:56:57;;;;;;;22.73;9.65;;;1.70;99.90;;;;;;4992717;28;20041;-77
2020/12/10 05:59:32;;;;;;;22.05;10.00;;;1.80;99.90;;;;;;4992267;28;20030;-77
2020/12/10 06:02:01;;;;;;;21.13;9.80;;;1.90;99.90;;;;;;4987180;28;20459;-78
2020/12/10 06:04:29;;;;;;;26.20;9.55;;;1.80;99.90;;;;;;4993854;28;20410;-76
2020/12/10 06:06:59;;;;;;;25.25;11.20;;;1.90;99.90;;;;;;4993572;28;20093;-77
2020/12/10 06:09:26;;;;;;;27.30;10.23;;;1.90;99.90;;;;;;4993632;28;20077;-76
2020/12/10 06:12:05;;;;;;;22.42;10.18;;;1.90;99.90;;;;;;4989565;28;20023;-76
2020/12/10 06:14:32;;;;;;;20.20;9.88;;;1.80;99.90;;;;;;4994238;28;20037;-77
2020/12/10 06:17:07;;;;;;;21.08;9.98;;;1.80;99.90;;;;;;4991770;28;20026;-77
2020/12/10 06:19:33;;;;;;;20.35;10.10;;;1.80;99.90;;;;;;4990831;28;20470;-76
2020/12/10 06:22:22;;;;;;;23.10;9.20;;;1.80;99.90;;;;;;4993547;28;20042;-77
2020/12/10 06:24:47;;;;;;;19.80;8.88;;;1.80;99.90;;;;;;5002992;28;20053;-77
2020/12/10 06:27:30;;;;;;;21.40;8.93;;;1.90;99.90;;;;;;5009219;28;20023;-76
2020/12/10 06:30:16;;;;;;;23.00;10.20;;;1.90;99.90;;;;;;5012428;28;20029;-75
2020/12/10 06:32:50;;;;;;;22.98;9.90;;;1.90;99.90;;;;;;5002921;28;20065;-76
2020/12/10 06:35:32;;;;;;;22.40;10.40;;;1.90;99.90;;;;;;5000237;28;20113;-76
2020/12/10 06:37:58;;;;;;;22.48;9.77;;;1.90;99.90;;;;;;4992679;28;20041;-76
2020/12/10 06:40:39;;;;;;;22.50;9.32;;;1.90;99.90;;;;;;4996070;28;20102;-77
2020/12/10 06:43:07;;;;;;;21.20;9.80;;;1.90;99.90;;;;;;4993790;28;20042;-76
2020/12/10 06:45:38;;;;;;;22.75;9.98;;;1.90;99.90;;;;;;4974592;28;20097;-77
2020/12/10 06:48:06;;;;;;;27.40;9.43;;;1.80;99.90;;;;;;4982862;28;20033;-77
2020/12/10 06:50:34;;;;;;;21.65;8.95;;;1.80;99.90;;;;;;4993531;28;20410;-77
2020/12/10 06:53:18;;;;;;;;;;;1.80;99.90;;;;;;4994765;28;20038;-77
2020/12/10 06:56:07;;;;;;;18.88;9.15;;;1.80;99.90;;;;;;4993819;28;19948;-78
2020/12/10 06:58:40;;;;;;;15.80;7.55;;;1.80;99.90;;;;;;5004989;28;20561;-77
2020/12/10 07:01:23;;;;;;;18.65;9.05;;;1.90;99.90;;;;;;4992995;28;20030;-77
2020/12/10 07:03:52;;;;;;;21.67;9.75;;;1.90;99.90;;;;;;4992978;28;20022;-77
2020/12/10 07:06:19;;;;;;;18.90;9.45;;;1.90;99.90;;;;;;4992427;28;20042;-77
2020/12/10 07:09:07;;;;;;;18.77;9.25;;;1.80;99.90;;;;;;4994339;28;20037;-77
2020/12/10 07:11:36;;;;;;;19.73;8.73;;;1.80;99.90;;;;;;4990214;28;20034;-76
2020/12/10 07:14:31;;;;;;;23.48;9.52;;;1.80;99.90;;;;;;4993315;28;20430;-76
2020/12/10 07:16:56;;;;;;;22.75;10.15;;;1.80;99.90;;;;;;4992507;28;20026;-77
2020/12/10 07:19:23;;;;;;;24.85;9.05;;;1.80;99.90;;;;;;4992993;28;20081;-78
2020/12/10 07:21:49;;;;;;;18.80;9.93;;;1.70;99.90;;;;;;4993927;28;20482;-78
2020/12/10 07:24:15;;;;;;;29.13;10.70;;;1.80;99.90;;;;;;4991919;28;20041;-77
2020/12/10 07:26:41;;;;;;;17.38;8.75;;;1.70;99.90;;;;;;4988806;28;20030;-79
2020/12/10 07:29:07;;;;;;;22.17;9.13;;;1.60;99.90;;;;;;4992094;28;20023;-79
2020/12/10 07:31:33;;;;;;;24.52;9.88;;;1.60;99.90;;;;;;4993042;28;20049;-79
2020/12/10 07:33:59;;;;;;;21.55;9.48;;;1.60;99.90;;;;;;4994120;28;20088;-80
2020/12/10 07:36:27;;;;;;;19.42;9.15;;;1.60;99.90;;;;;;4993602;28;20062;-76
2020/12/10 07:39:08;;;;;;;20.50;10.27;;;1.60;99.90;;;;;;4994073;28;20022;-77
2020/12/10 07:41:37;;;;;;;22.75;10.13;;;1.60;99.90;;;;;;4991953;28;20030;-81
2020/12/10 07:44:03;;;;;;;21.25;9.40;;;1.70;99.90;;;;;;5007780;28;20085;-78
2020/12/10 07:46:35;;;;;;;16.70;8.70;;;1.60;99.90;;;;;;4995829;28;20031;-78
2020/12/10 07:49:04;;;;;;;19.02;8.57;;;1.70;99.90;;;;;;5015247;28;20007;-78
2020/12/10 07:51:31;;;;;;;20.45;8.63;;;1.70;99.90;;;;;;5015075;28;20045;-78
2020/12/10 07:54:02;;;;;;;18.75;8.57;;;1.80;99.90;;;;;;4979292;28;20043;-79
2020/12/10 07:56:30;;;;;;;26.85;8.45;;;1.80;99.90;;;;;;4987862;28;20050;-78
2020/12/10 07:59:17;;;;;;;18.42;8.13;;;1.90;99.90;;;;;;4996968;28;20044;-76
2020/12/10 08:01:52;;;;;;;17.90;9.30;;;1.90;99.90;;;;;;4984007;28;20394;-79
2020/12/10 08:04:19;;;;;;;20.23;9.77;;;1.90;99.90;;;;;;4997440;28;20031;-79
2020/12/10 08:06:51;;;;;;;19.17;9.25;;;1.80;99.90;;;;;;4999685;28;20056;-78
2020/12/10 08:09:19;;;;;;;17.02;8.82;;;1.70;99.90;;;;;;4996404;28;20070;-79
2020/12/10 08:11:53;;;;;;;21.85;8.60;;;1.70;99.90;;;;;;4997913;28;20022;-77
2020/12/10 08:14:28;;;;;;;21.25;8.88;;;1.70;99.90;;;;;;4995929;28;20042;-78
2020/12/10 08:16:55;;;;;;;21.45;10.07;;;1.60;99.90;;;;;;4996497;28;20375;-82
2020/12/10 08:19:34;;;;;;;20.33;9.32;;;1.60;99.90;;;;;;4996986;28;20030;-75
2020/12/10 08:21:59;;;;;;;20.90;9.13;;;1.70;99.90;;;;;;4995781;28;20037;-75
2020/12/10 08:24:47;;;;;;;17.52;8.18;;;1.70;99.90;;;;;;4997018;28;20022;-75
2020/12/10 08:27:33;;;;;;;17.70;8.40;;;1.70;99.90;;;;;;4995753;28;20022;-77
2020/12/10 08:30:11;;;;;;;18.23;8.88;;;1.70;99.90;;;;;;4996501;28;20045;-76
2020/12/10 08:32:49;;;;;;;23.63;9.20;;;1.80;99.90;;;;;;4979268;28;20554;-78
2020/12/10 08:35:15;;;;;;;23.13;9.55;;;1.80;99.90;;;;;;4995367;28;20026;-76
2020/12/10 08:37:42;;;;;;;21.00;9.23;;;1.80;99.90;;;;;;4996512;28;20033;-78
2020/12/10 08:40:09;;;;;;;17.80;8.93;;;1.80;99.90;;;;;;4979240;28;20070;-78
2020/12/10 08:42:35;;;;;;;23.27;11.00;;;1.90;99.90;;;;;;4997266;28;20515;-78
2020/12/10 08:45:03;;;;;;;19.90;8.70;;;1.90;99.90;;;;;;4997223;28;20026;-78
2020/12/10 08:47:31;;;;;;;21.48;8.90;;;2.00;99.90;;;;;;4995644;28;20027;-78
2020/12/10 08:50:21;;;;;;;21.40;9.30;;;2.00;99.90;;;;;;4993254;28;20096;-77
2020/12/10 08:52:48;;;;;;;21.90;10.70;;;1.90;99.90;;;;;;4993344;28;20389;-79
2020/12/10 08:55:13;;;;;;;22.00;8.85;;;1.90;99.90;;;;;;4994777;28;20097;-78
2020/12/10 08:57:49;;;;;;;25.80;9.95;;;1.90;99.90;;;;;;4997381;28;20042;-78
2020/12/10 09:00:16;;;;;;;21.67;9.15;;;1.90;99.90;;;;;;5000294;28;20077;-78
2020/12/10 09:02:45;;;;;;;20.13;9.20;;;2.00;99.90;;;;;;5012116;28;20014;-78
2020/12/10 09:05:10;;;;;;;17.98;9.38;;;2.00;99.90;;;;;;5001390;28;20046;-78
2020/12/10 09:07:36;;;;;;;20.95;9.70;;;2.00;99.90;;;;;;5017519;28;20077;-76
2020/12/10 09:10:05;;;;;;;20.27;9.38;;;2.00;99.90;;;;;;5016236;28;20149;-79
2020/12/10 09:12:31;;;;;;;24.20;9.18;;;2.00;99.90;;;;;;5018556;28;20061;-77
2020/12/10 09:15:16;;;;;;;19.33;8.50;;;2.00;99.90;;;;;;5005182;28;20039;-78
2020/12/10 09:17:44;;;;;;;21.20;8.48;;;2.10;99.90;;;;;;5002193;28;20034;-76
2020/12/10 09:20:09;;;;;;;21.35;9.73;;;2.10;99.90;;;;;;4998030;28;20053;-77
2020/12/10 09:22:35;;;;;;;17.92;10.05;;;2.10;99.90;;;;;;4996619;28;20025;-76
2020/12/10 09:25:00;;;;;;;50.35;20.02;;;2.20;99.90;;;;;;4994202;28;20045;-76
2020/12/10 09:27:32;;;;;;;62.75;25.83;;;2.30;99.90;;;;;;4994352;28;20030;-76
2020/12/10 09:29:57;;;;;;;230.98;95.32;;;2.30;99.90;;;;;;4995484;28;20034;-76
2020/12/10 09:32:24;;;;;;;79.93;34.83;;;2.30;99.90;;;;;;4994051;28;20100;-76
2020/12/10 09:34:52;;;;;;;24.60;12.18;;;2.30;99.90;;;;;;4995405;28;20033;-76
2020/12/10 09:37:18;;;;;;;23.38;10.95;;;2.30;99.90;;;;;;4991441;28;20560;-76
2020/12/10 09:40:05;;;;;;;20.40;10.98;;;2.30;99.90;;;;;;4995890;28;20026;-76
2020/12/10 09:42:39;;;;;;;21.58;9.25;;;2.30;99.90;;;;;;4994053;28;20486;-76
2020/12/10 09:45:05;;;;;;;25.33;10.95;;;2.40;99.90;;;;;;4994022;28;20058;-76
2020/12/10 09:47:32;;;;;;;22.83;11.35;;;2.40;99.90;;;;;;4994057;28;20056;-76
2020/12/10 09:49:58;;;;;;;25.20;11.63;;;2.40;99.90;;;;;;4995814;28;20110;-76
2020/12/10 09:52:24;;;;;;;23.45;10.15;;;2.40;99.90;;;;;;4993969;28;20034;-76
2020/12/10 09:57:35;;;;;;;24.08;10.95;;;2.50;99.90;;;;;;4993660;28;20441;-77
2020/12/10 10:00:03;;;;;;;21.05;10.88;;;2.50;99.90;;;;;;4989821;28;20030;-74
2020/12/10 10:02:32;;;;;;;23.33;10.20;;;2.60;99.90;;;;;;4992000;28;20034;-74
2020/12/10 10:04:58;;;;;;;24.00;11.75;;;2.70;99.90;;;;;;4994455;28;20030;-75
2020/12/10 10:07:23;;;;;;;21.20;10.25;;;2.70;99.90;;;;;;4993615;28;20046;-75
2020/12/10 10:09:49;;;;;;;31.65;12.88;;;2.80;99.90;;;;;;4992866;28;20073;-75
2020/12/10 10:12:15;;;;;;;21.63;10.30;;;2.90;99.90;;;;;;4984799;28;20482;-76
2020/12/10 10:14:42;;;;;;;24.50;10.77;;;3.00;99.90;;;;;;4989968;28;20031;-77
2020/12/10 10:17:09;;;;;;;24.52;11.35;;;2.90;99.90;;;;;;4989122;28;20038;-74
2020/12/10 10:19:36;;;;;;;21.55;9.85;;;2.80;99.90;;;;;;4989359;28;20062;-75
2020/12/10 10:22:02;;;;;;;27.10;12.18;;;2.70;99.90;;;;;;4999829;28;20022;-76
2020/12/10 10:24:29;;;;;;;24.55;11.48;;;2.70;99.90;;;;;;5008867;28;20033;-76
2020/12/10 10:26:55;;;;;;;23.17;11.20;;;2.70;99.90;;;;;;5009629;28;20034;-76
2020/12/10 10:29:30;;;;;;;23.80;10.20;;;2.70;99.90;;;;;;5008194;28;20093;-78
2020/12/10 10:31:56;;;;;;;24.08;10.35;;;2.80;99.90;;;;;;4999326;28;20038;-78
2020/12/10 10:34:22;;;;;;;20.23;10.45;;;2.80;99.90;;;;;;5001816;28;20038;-78
2020/12/10 10:36:50;;;;;;;28.25;11.70;;;2.90;99.90;;;;;;4993538;28;20019;-78
2020/12/10 10:39:18;;;;;;;24.52;10.82;;;2.90;99.90;;;;;;4990687;28;20467;-77
2020/12/10 10:41:47;;;;;;;26.13;11.23;;;2.90;99.90;;;;;;4989280;28;20044;-76
2020/12/10 10:44:14;;;;;;;24.60;10.55;;;2.90;99.90;;;;;;4994846;28;20101;-76
2020/12/10 10:46:40;;;;;;;19.42;10.20;;;2.90;99.90;;;;;;4991136;28;20035;-78
2020/12/10 10:49:06;;;;;;;25.55;11.98;;;2.80;99.90;;;;;;4992035;28;20033;-78
2020/12/10 10:51:32;;;;;;;26.00;12.13;;;2.90;99.90;;;;;;4991191;28;20054;-78
2020/12/10 10:54:00;;;;;;;24.17;11.02;;;2.90;99.90;;;;;;4993814;28;20026;-78
2020/12/10 10:56:27;;;;;;;27.40;11.07;;;2.90;99.90;;;;;;4974968;28;20043;-79
2020/12/10 10:58:53;;;;;;;20.60;11.38;;;3.00;99.90;;;;;;4991844;28;20033;-74
2020/12/10 11:01:31;;;;;;;21.63;10.60;;;3.00;99.90;;;;;;4989875;28;20553;-75
2020/12/10 11:04:17;;;;;;;23.77;11.43;;;3.10;99.90;;;;;;4983053;28;20454;-75
2020/12/10 11:06:43;;;;;;;24.55;12.00;;;3.20;99.90;;;;;;4987072;28;20038;-77
2020/12/10 11:09:08;;;;;;;26.77;11.23;;;3.30;99.90;;;;;;4971412;28;20108;-77
2020/12/10 11:11:34;;;;;;;32.42;13.43;;;3.40;99.90;;;;;;4991237;28;20475;-76
2020/12/10 11:14:05;;;;;;;26.10;12.13;;;3.40;99.90;;;;;;4992857;28;20500;-77
2020/12/10 11:16:58;;;;;;;23.65;10.60;;;3.50;99.90;;;;;;4988072;28;20490;-78
2020/12/10 11:19:26;;;;;;;27.33;11.20;;;3.60;99.90;;;;;;4987239;28;20041;-76
2020/12/10 11:21:52;;;;;;;25.85;11.25;;;3.70;99.90;;;;;;4975211;28;20053;-78
2020/12/10 11:24:20;;;;;;;21.33;9.90;;;3.70;99.90;;;;;;4993182;28;20418;-78
2020/12/10 11:26:52;;;;;;;26.77;12.13;;;3.70;99.90;;;;;;4993052;28;20034;-78
2020/12/10 11:29:41;;;;;;;31.85;11.45;;;3.70;99.90;;;;;;4971270;28;20069;-77
2020/12/10 11:32:06;;;;;;;23.05;11.88;;;3.70;99.90;;;;;;4987834;28;20483;-76
2020/12/10 11:34:33;;;;;;;42.47;15.32;;;3.70;99.90;;;;;;4990618;28;20084;-76
2020/12/10 11:37:13;;;;;;;116.82;37.97;;;3.80;99.90;;;;;;4990763;28;20112;-76
2020/12/10 11:39:39;;;;;;;561.42;183.73;;;3.80;99.90;;;;;;4990551;28;20034;-76
2020/12/10 11:42:04;;;;;;;64.15;25.05;;;3.80;99.90;;;;;;4993006;28;20471;-76
2020/12/10 11:44:50;;;;;;;41.97;18.63;;;3.80;99.90;;;;;;4994549;28;20041;-77
2020/12/10 11:47:17;;;;;;;48.03;21.90;;;3.90;99.90;;;;;;5006196;28;20023;-76
2020/12/10 11:49:43;;;;;;;27.42;14.35;;;3.90;99.90;;;;;;5008934;28;20030;-77
2020/12/10 11:52:29;;;;;;;21.55;9.70;;;4.00;99.90;;;;;;5010374;28;20034;-78
2020/12/10 11:54:55;;;;;;;38.55;17.90;;;3.90;99.90;;;;;;5001373;28;20058;-75
2020/12/10 11:57:20;;;;;;;24.75;12.98;;;3.80;99.90;;;;;;4998352;28;20106;-76
2020/12/10 11:59:53;;;;;;;32.50;13.73;;;3.70;99.90;;;;;;4997139;28;20022;-76
2020/12/10 12:02:19;;;;;;;25.30;11.65;;;3.80;99.90;;;;;;4976783;28;20158;-77
2020/12/10 12:04:44;;;;;;;21.55;11.20;;;3.90;99.90;;;;;;4989389;28;20073;-78
2020/12/10 12:07:10;;;;;;;20.42;10.90;;;4.00;99.90;;;;;;4991772;28;20054;-76
2020/12/10 12:09:36;;;;;;;23.23;10.63;;;4.10;99.90;;;;;;4993783;28;20085;-76
2020/12/10 12:12:24;;;;;;;22.85;11.93;;;4.00;99.90;;;;;;4991935;28;20038;-77
2020/12/10 12:14:50;;;;;;;27.73;14.90;;;4.00;99.90;;;;;;4984680;28;20046;-76
2020/12/10 12:17:19;;;;;;;25.85;12.23;;;4.00;99.90;;;;;;4992878;28;20602;-76
2020/12/10 12:19:45;;;;;;;24.10;10.82;;;4.00;99.90;;;;;;4990791;28;20035;-76
2020/12/10 12:22:20;;;;;;;31.15;12.43;;;4.10;99.90;;;;;;4985144;28;20053;-77
2020/12/10 12:24:45;;;;;;;20.90;10.52;;;4.10;99.90;;;;;;4986080;28;20037;-76
2020/12/10 12:27:12;;;;;;;23.83;12.40;;;4.20;99.90;;;;;;4989102;28;20474;-76
2020/12/10 12:29:39;;;;;;;29.17;11.55;;;4.20;99.90;;;;;;4991079;28;20030;-77
2020/12/10 12:32:08;;;;;;;22.67;11.10;;;4.10;99.90;;;;;;4990643;28;20574;-78
2020/12/10 12:34:34;;;;;;;31.30;13.52;;;4.00;99.90;;;;;;4988826;28;20042;-77
2020/12/10 12:37:01;;;;;;;19.48;11.00;;;4.00;99.90;;;;;;4988057;28;20113;-76
2020/12/10 12:39:27;;;;;;;25.20;11.85;;;4.00;99.90;;;;;;4983502;28;20504;-77
2020/12/10 12:41:53;;;;;;;22.23;11.90;;;4.00;99.90;;;;;;4985264;28;20090;-76
2020/12/10 12:44:21;;;;;;;26.52;12.38;;;3.90;99.90;;;;;;4989398;28;20038;-77
2020/12/10 12:46:51;;;;;;;25.42;11.70;;;3.90;99.90;;;;;;4982996;28;20035;-77
2020/12/10 12:49:33;;;;;;;25.80;10.88;;;3.80;99.90;;;;;;4994759;28;20034;-77
2020/12/10 12:52:00;;;;;;;26.77;11.75;;;3.80;99.90;;;;;;4990475;28;20049;-77